sensor_id;sensor_type;location;lat;lon;timestamp;P1;durP1;ratioP1;P2;durP2;ratioP2
13564;SDS011;6854;48.096;11.278;2022-11-23T12:56:05;2.83;;;0.70;;
13564;SDS011;6854;48.096;11.278;2022-11-23T12:58:34;1.53;;;0.63;;
13564;SDS011;6854;48.096;11.278;2022-11-23T13:06:35;2.17;;;0.80;;
13564;SDS011;6854;48.096;11.278;2022-11-23T13:21:57;3.40;;;0.67;;
13564;SDS011;6854;48.096;11.278;2022-11-23T13:24:37;1.97;;;0.67;;
13564;SDS011;6854;48.096;11.278;2022-11-23T13:32:58;1.33;;;0.70;;
13564;SDS011;6854;48.096;11.278;2022-11-23T13:40:49;2.40;;;0.50;;
13564;SDS011;6854;48.096;11.278;2022-11-23T13:43:28;0.83;;;0.50;;
13564;SDS011;6854;48.096;11.278;2022-11-23T13:48:52;1.57;;;0.60;;
13564;SDS011;6854;48.096;11.278;2022-11-23T13:54:22;1.67;;;0.60;;
13564;SDS011;6854;48.096;11.278;2022-11-23T13:57:11;3.73;;;0.80;;
13564;SDS011;6854;48.096;11.278;2022-11-23T13:59:36;3.57;;;0.60;;
13564;SDS011;6854;48.096;11.278;2022-11-23T14:06:58;1.43;;;0.57;;
13564;SDS011;6854;48.096;11.278;2022-11-23T14:11:58;1.53;;;0.50;;
13564;SDS011;6854;48.096;11.278;2022-11-23T14:14:28;2.63;;;0.60;;
13564;SDS011;6854;48.096;11.278;2022-11-23T14:17:00;6.40;;;0.60;;
13564;SDS011;6854;48.096;11.278;2022-11-23T14:25:08;19.57;;;1.10;;
13564;SDS011;6854;48.096;11.278;2022-11-23T14:30:05;4.37;;;0.70;;
13564;SDS011;6854;48.096;11.278;2022-11-23T14:32:45;1.40;;;0.63;;
13564;SDS011;6854;48.096;11.278;2022-11-23T14:35:18;6.00;;;0.73;;
13564;SDS011;6854;48.096;11.278;2022-11-23T14:42:41;1.33;;;0.60;;
13564;SDS011;6854;48.096;11.278;2022-11-23T14:45:12;2.90;;;0.70;;
13564;SDS011;6854;48.096;11.278;2022-11-23T14:47:38;1.10;;;0.60;;
13564;SDS011;6854;48.096;11.278;2022-11-23T14:50:05;1.53;;;0.80;;
13564;SDS011;6854;48.096;11.278;2022-11-23T14:52:33;3.13;;;0.67;;
13564;SDS011;6854;48.096;11.278;2022-11-23T14:55:00;1.83;;;1.00;;
13564;SDS011;6854;48.096;11.278;2022-11-23T14:57:28;4.80;;;0.93;;
13564;SDS011;6854;48.096;11.278;2022-11-23T14:59:59;11.13;;;0.80;;
13564;SDS011;6854;48.096;11.278;2022-11-23T15:02:37;7.47;;;0.80;;
13564;SDS011;6854;48.096;11.278;2022-11-23T15:05:06;4.27;;;1.00;;
13564;SDS011;6854;48.096;11.278;2022-11-23T15:12:47;4.70;;;1.03;;
13564;SDS011;6854;48.096;11.278;2022-11-23T15:20:17;3.20;;;1.03;;
13564;SDS011;6854;48.096;11.278;2022-11-23T15:22:44;9.27;;;1.47;;
13564;SDS011;6854;48.096;11.278;2022-11-23T15:25:12;7.77;;;1.40;;
13564;SDS011;6854;48.096;11.278;2022-11-23T15:27:40;4.57;;;1.23;;
13564;SDS011;6854;48.096;11.278;2022-11-23T15:30:28;4.63;;;1.20;;
13564;SDS011;6854;48.096;11.278;2022-11-23T15:33:00;5.20;;;1.30;;
13564;SDS011;6854;48.096;11.278;2022-11-23T15:35:33;6.60;;;1.27;;
13564;SDS011;6854;48.096;11.278;2022-11-23T15:38:00;12.40;;;1.97;;
13564;SDS011;6854;48.096;11.278;2022-11-23T15:40:29;14.00;;;1.33;;
13564;SDS011;6854;48.096;11.278;2022-11-23T15:42:57;9.00;;;1.07;;
13564;SDS011;6854;48.096;11.278;2022-11-23T15:45:40;7.40;;;1.00;;
13564;SDS011;6854;48.096;11.278;2022-11-23T15:48:17;15.77;;;1.20;;
13564;SDS011;6854;48.096;11.278;2022-11-23T15:50:47;4.50;;;0.97;;
13564;SDS011;6854;48.096;11.278;2022-11-23T15:53:15;10.20;;;1.17;;
13564;SDS011;6854;48.096;11.278;2022-11-23T15:55:41;9.50;;;1.00;;
13564;SDS011;6854;48.096;11.278;2022-11-23T15:58:08;13.50;;;1.10;;
13564;SDS011;6854;48.096;11.278;2022-11-23T16:00:34;15.33;;;1.47;;
13564;SDS011;6854;48.096;11.278;2022-11-23T16:05:45;18.07;;;1.57;;
13564;SDS011;6854;48.096;11.278;2022-11-23T16:08:32;5.20;;;1.80;;
13564;SDS011;6854;48.096;11.278;2022-11-23T16:11:02;5.27;;;1.50;;
13564;SDS011;6854;48.096;11.278;2022-11-23T16:13:37;9.17;;;1.43;;
13564;SDS011;6854;48.096;11.278;2022-11-23T16:16:05;15.70;;;1.73;;
13564;SDS011;6854;48.096;11.278;2022-11-23T16:18:36;2.10;;;0.83;;
13564;SDS011;6854;48.096;11.278;2022-11-23T16:21:28;17.43;;;1.67;;
13564;SDS011;6854;48.096;11.278;2022-11-23T16:23:55;11.03;;;1.10;;
